createdAt,value
2019-01-24T00:01:35.020Z,89.60
2019-01-24T00:04:05.631Z,89.50
2019-01-24T00:06:35.992Z,89.40
2019-01-24T00:09:09.019Z,89.00
2019-01-24T00:11:39.366Z,89.30
2019-01-24T00:14:09.755Z,89.30
2019-01-24T00:16:40.130Z,89.80
2019-01-24T00:19:10.478Z,88.90
2019-01-24T00:21:40.846Z,89.60
2019-01-24T00:24:11.202Z,88.90
2019-01-24T00:26:41.643Z,89.10
2019-01-24T00:29:11.982Z,89.50
2019-01-24T00:31:42.393Z,89.20
2019-01-24T00:34:12.742Z,89.60
2019-01-24T00:36:43.226Z,89.30
2019-01-24T00:39:13.577Z,88.60
2019-01-24T00:41:43.975Z,87.90
2019-01-24T00:44:14.322Z,88.40
2019-01-24T00:46:44.698Z,88.10
2019-01-24T00:49:15.553Z,87.80
2019-01-24T00:51:45.949Z,88.00
2019-01-24T00:54:16.306Z,88.00
2019-01-24T00:56:46.686Z,88.20
2019-01-24T00:59:17.375Z,88.40
2019-01-24T01:01:47.806Z,87.70
2019-01-24T01:04:18.170Z,88.10
2019-01-24T01:06:50.930Z,87.70
2019-01-24T01:09:21.294Z,87.30
2019-01-24T01:11:52.039Z,88.20
2019-01-24T01:14:22.416Z,87.60
2019-01-24T01:16:52.778Z,88.20
2019-01-24T01:19:23.168Z,88.60
2019-01-24T01:21:53.529Z,88.70
2019-01-24T01:24:23.997Z,88.90
2019-01-24T01:26:54.362Z,88.50
2019-01-24T01:29:24.731Z,87.70
2019-01-24T01:31:55.178Z,86.30
2019-01-24T01:34:25.534Z,86.90
2019-01-24T01:36:55.910Z,86.50
2019-01-24T01:39:45.326Z,86.80
2019-01-24T01:42:15.808Z,87.30
2019-01-24T01:44:47.230Z,87.70
2019-01-24T01:47:17.718Z,87.20
2019-01-24T01:49:48.138Z,86.90
2019-01-24T01:52:18.565Z,86.90
2019-01-24T01:54:49.303Z,86.60
2019-01-24T01:57:31.087Z,87.00
2019-01-24T02:00:01.436Z,87.30
2019-01-24T02:02:31.811Z,87.60
2019-01-24T02:05:02.186Z,87.20
2019-01-24T02:07:32.534Z,87.30
2019-01-24T02:10:02.914Z,87.60
2019-01-24T02:12:33.257Z,88.20
2019-01-24T02:15:07.506Z,87.20
2019-01-24T02:17:37.874Z,87.60
2019-01-24T02:20:11.854Z,87.70
2019-01-24T02:22:42.194Z,88.20
2019-01-24T02:25:12.658Z,87.40
2019-01-24T02:27:43.141Z,88.10
2019-01-24T02:30:22.084Z,88.20
2019-01-24T02:32:52.574Z,87.80
2019-01-24T02:35:23.176Z,88.20
2019-01-24T02:37:53.532Z,88.50
2019-01-24T02:40:24.035Z,88.30
2019-01-24T02:42:54.401Z,88.10
2019-01-24T02:45:43.850Z,88.00
2019-01-24T02:48:14.195Z,88.30
2019-01-24T02:50:44.703Z,88.70
2019-01-24T02:53:34.126Z,88.70
2019-01-24T02:56:05.057Z,88.20
2019-01-24T02:58:35.410Z,87.90
2019-01-24T03:01:05.999Z,88.10
2019-01-24T03:03:36.362Z,87.70
2019-01-24T03:06:06.753Z,87.60
2019-01-24T03:08:37.135Z,88.10
2019-01-24T03:11:07.606Z,88.60
2019-01-24T03:13:37.952Z,88.00
2019-01-24T03:16:08.356Z,88.50
2019-01-24T03:18:38.692Z,88.20
2019-01-24T03:21:09.074Z,88.30
2019-01-24T03:23:39.429Z,88.50
2019-01-24T03:26:09.815Z,88.80
2019-01-24T03:28:40.197Z,88.60
2019-01-24T03:31:10.562Z,88.60
2019-01-24T03:33:52.860Z,88.80
2019-01-24T03:36:23.218Z,88.50
2019-01-24T03:38:53.602Z,88.60
2019-01-24T03:41:23.967Z,88.80
2019-01-24T03:43:54.354Z,89.40
2019-01-24T03:46:24.720Z,88.80
2019-01-24T03:48:55.492Z,88.40
2019-01-24T03:51:26.198Z,88.60
2019-01-24T03:53:56.646Z,89.40
2019-01-24T03:56:27.006Z,89.00
2019-01-24T03:58:57.478Z,89.20
2019-01-24T04:01:27.837Z,89.20
2019-01-24T04:03:59.322Z,89.20
2019-01-24T04:06:29.680Z,88.60
2019-01-24T04:09:00.176Z,88.80
2019-01-24T04:11:30.523Z,89.30
2019-01-24T04:14:00.898Z,89.90
2019-01-24T04:16:31.251Z,89.80
2019-01-24T04:19:01.646Z,89.60
2019-01-24T04:21:32.001Z,89.80
2019-01-24T04:24:02.463Z,89.40
2019-01-24T04:26:32.817Z,89.20
2019-01-24T04:29:03.215Z,88.90
2019-01-24T04:31:33.575Z,88.50
2019-01-24T04:34:04.051Z,88.20
2019-01-24T04:36:34.407Z,87.80
2019-01-24T04:39:07.335Z,87.80
2019-01-24T04:41:37.742Z,87.80
2019-01-24T04:44:08.097Z,88.20
2019-01-24T04:46:38.480Z,87.70
2019-01-24T04:49:08.882Z,88.40
2019-01-24T04:51:39.231Z,88.90
2019-01-24T04:54:09.586Z,89.00
2019-01-24T04:56:40.062Z,89.20
2019-01-24T04:59:10.423Z,89.30
2019-01-24T05:01:40.804Z,89.80
2019-01-24T05:04:11.174Z,89.80
2019-01-24T05:06:41.530Z,89.20
2019-01-24T05:09:11.910Z,89.60
2019-01-24T05:11:42.261Z,89.60
2019-01-24T05:14:12.675Z,90.10
2019-01-24T05:16:43.035Z,90.00
2019-01-24T05:19:13.429Z,90.00
2019-01-24T05:21:43.779Z,89.70
2019-01-24T05:24:14.242Z,90.10
2019-01-24T05:26:44.593Z,90.20
2019-01-24T05:29:14.981Z,89.30
2019-01-24T05:31:45.326Z,88.90
2019-01-24T05:34:16.091Z,89.20
2019-01-24T05:36:46.578Z,89.00
2019-01-24T05:39:17.141Z,89.60
2019-01-24T05:41:47.582Z,88.90
2019-01-24T05:44:17.933Z,88.80
2019-01-24T05:46:48.325Z,88.60
2019-01-24T05:49:18.702Z,89.10
2019-01-24T05:51:49.167Z,89.00
2019-01-24T05:54:19.519Z,88.90
2019-01-24T05:56:49.938Z,88.10
2019-01-24T05:59:20.289Z,88.00
2019-01-24T06:01:51.255Z,88.60
2019-01-24T06:04:22.683Z,87.80
2019-01-24T06:06:53.101Z,88.00
2019-01-24T06:09:23.451Z,87.70
2019-01-24T06:11:53.813Z,87.00
2019-01-24T06:14:24.190Z,87.30
2019-01-24T06:16:54.539Z,87.40
2019-01-24T06:19:24.925Z,87.70
2019-01-24T06:21:55.275Z,87.10
2019-01-24T06:24:25.675Z,86.90
2019-01-24T06:26:56.038Z,87.00
2019-01-24T06:29:26.449Z,86.70
2019-01-24T06:31:56.802Z,87.40
2019-01-24T06:34:27.202Z,86.40
2019-01-24T06:36:57.546Z,86.40
2019-01-24T06:39:28.314Z,86.60
2019-01-24T06:41:58.674Z,86.60
2019-01-24T06:44:29.486Z,86.10
2019-01-24T06:46:59.842Z,86.50
2019-01-24T06:49:30.326Z,86.60
2019-01-24T06:52:00.687Z,86.80
2019-01-24T06:54:31.170Z,86.90
2019-01-24T06:57:01.589Z,87.00
2019-01-24T06:59:32.018Z,87.20
2019-01-24T07:02:02.370Z,87.10
2019-01-24T07:04:32.746Z,87.30
2019-01-24T07:07:03.122Z,86.90
2019-01-24T07:09:33.478Z,87.00
2019-01-24T07:12:03.847Z,86.70
2019-01-24T07:14:34.190Z,87.10
2019-01-24T07:17:04.663Z,87.00
2019-01-24T07:19:35.059Z,87.80
2019-01-24T07:22:05.551Z,87.10
2019-01-24T07:24:35.970Z,87.60
2019-01-24T07:27:06.370Z,87.30
2019-01-24T07:29:36.718Z,87.70
2019-01-24T07:32:07.158Z,87.50
2019-01-24T07:34:37.510Z,88.00
2019-01-24T07:37:07.973Z,87.60
2019-01-24T07:39:38.325Z,87.60
2019-01-24T07:42:08.702Z,88.60
2019-01-24T07:44:39.086Z,87.70
2019-01-24T07:47:09.498Z,88.30
2019-01-24T07:49:40.014Z,88.90
2019-01-24T07:52:10.421Z,88.80
2019-01-24T07:54:40.780Z,88.60
2019-01-24T07:57:11.230Z,88.20
2019-01-24T07:59:41.604Z,88.60
2019-01-24T08:02:11.995Z,88.20
2019-01-24T08:04:42.350Z,87.20
2019-01-24T08:07:12.721Z,87.60
2019-01-24T08:09:43.104Z,87.60
2019-01-24T08:12:13.470Z,87.10
2019-01-24T08:14:43.854Z,87.60
2019-01-24T08:17:14.212Z,88.30
2019-01-24T08:19:44.618Z,87.70
2019-01-24T08:22:14.974Z,88.00
2019-01-24T08:24:45.462Z,88.60
2019-01-24T08:27:15.826Z,88.60
2019-01-24T08:29:46.227Z,88.30
2019-01-24T08:32:16.570Z,87.90
2019-01-24T08:34:47.710Z,88.30
2019-01-24T08:37:18.054Z,88.50
2019-01-24T08:39:48.450Z,88.10
2019-01-24T08:42:18.803Z,88.10
2019-01-24T08:44:49.162Z,87.60
2019-01-24T08:47:19.526Z,87.60
2019-01-24T08:49:50.686Z,87.70
2019-01-24T08:52:21.266Z,88.60
2019-01-24T08:54:51.622Z,87.80
2019-01-24T08:57:22.190Z,87.70
2019-01-24T08:59:52.542Z,88.10
2019-01-24T09:02:22.968Z,88.10
2019-01-24T09:04:53.346Z,88.20
2019-01-24T09:07:23.726Z,87.80
2019-01-24T09:09:54.102Z,87.70
2019-01-24T09:12:30.215Z,87.80
2019-01-24T09:14:56.459Z,87.70
2019-01-24T09:17:26.818Z,88.10
2019-01-24T09:19:57.217Z,88.00
2019-01-24T09:22:27.554Z,87.90
2019-01-24T09:24:57.958Z,88.10
2019-01-24T09:27:28.330Z,88.10
2019-01-24T09:29:58.698Z,87.70
2019-01-24T09:32:29.410Z,87.50
2019-01-24T09:34:59.767Z,87.10
2019-01-24T09:37:30.153Z,86.60
2019-01-24T09:40:00.514Z,86.90
2019-01-24T09:42:30.944Z,86.60
2019-01-24T09:45:01.303Z,87.20
2019-01-24T09:47:31.879Z,86.40
2019-01-24T09:50:02.282Z,86.60
2019-01-24T09:52:32.654Z,85.80
2019-01-24T09:55:03.406Z,85.80
2019-01-24T09:57:33.790Z,86.90
2019-01-24T10:00:05.541Z,86.40
2019-01-24T10:02:35.902Z,85.80
2019-01-24T10:05:07.214Z,86.30
2019-01-24T10:07:37.570Z,86.80
2019-01-24T10:10:19.982Z,86.10
2019-01-24T10:12:50.459Z,86.10
2019-01-24T10:15:21.373Z,86.10
2019-01-24T10:17:51.734Z,86.00
2019-01-24T10:20:23.504Z,85.50
2019-01-24T10:22:54.126Z,86.00
2019-01-24T10:25:30.329Z,85.30
2019-01-24T10:28:00.694Z,85.80
2019-01-24T10:30:31.107Z,85.70
2019-01-24T10:33:01.458Z,85.80
2019-01-24T10:35:31.893Z,85.00
2019-01-24T10:38:02.266Z,84.00
2019-01-24T10:40:33.521Z,84.40
2019-01-24T10:43:04.194Z,85.20
2019-01-24T10:45:34.553Z,84.60
2019-01-24T10:48:05.319Z,85.20
2019-01-24T10:50:35.807Z,85.80
2019-01-24T10:53:06.269Z,85.00
2019-01-24T10:55:36.663Z,85.30
2019-01-24T10:58:07.980Z,84.50
2019-01-24T11:01:00.295Z,85.10
2019-01-24T11:03:30.786Z,85.20
2019-01-24T11:06:01.198Z,85.70
2019-01-24T11:08:31.621Z,85.70
2019-01-24T11:11:01.942Z,86.00
2019-01-24T11:13:32.407Z,86.10
2019-01-24T11:16:02.751Z,85.80
2019-01-24T11:18:33.514Z,85.70
2019-01-24T11:21:04.388Z,85.90
2019-01-24T11:23:34.854Z,85.90
2019-01-24T11:26:05.218Z,85.70
2019-01-24T11:28:35.602Z,86.40
2019-01-24T11:31:06.401Z,85.60
2019-01-24T11:33:36.810Z,86.00
2019-01-24T11:36:07.202Z,86.00
2019-01-24T11:38:37.562Z,86.20
2019-01-24T11:41:08.044Z,86.00
2019-01-24T11:43:38.433Z,86.30
2019-01-24T11:46:21.015Z,86.10
2019-01-24T11:48:51.387Z,86.20
2019-01-24T11:51:21.800Z,85.60
2019-01-24T11:53:53.241Z,86.00
2019-01-24T11:56:23.784Z,86.00
2019-01-24T11:58:54.171Z,85.70
2019-01-24T12:01:24.579Z,86.30
2019-01-24T12:03:55.139Z,86.40
2019-01-24T12:06:25.542Z,87.20
2019-01-24T12:08:55.903Z,87.20
2019-01-24T12:11:27.210Z,87.70
2019-01-24T12:13:57.572Z,87.80
2019-01-24T12:16:27.963Z,88.00
2019-01-24T12:18:58.339Z,88.40
2019-01-24T12:21:29.811Z,89.00
2019-01-24T12:24:02.136Z,89.30
2019-01-24T12:26:32.282Z,89.30
2019-01-24T12:29:02.630Z,89.30
2019-01-24T12:31:33.035Z,89.40
2019-01-24T12:34:03.421Z,89.80
2019-01-24T12:36:33.802Z,89.50
2019-01-24T12:39:06.266Z,89.50
2019-01-24T12:41:39.477Z,90.00
2019-01-24T12:44:09.890Z,90.00
2019-01-24T12:46:40.229Z,90.00
2019-01-24T12:49:10.607Z,90.30
2019-01-24T12:51:41.012Z,90.20
2019-01-24T12:54:11.433Z,90.20
2019-01-24T12:56:41.777Z,90.20
2019-01-24T12:59:12.174Z,90.30
2019-01-24T13:01:42.539Z,90.70
2019-01-24T13:04:13.291Z,90.40
2019-01-24T13:06:55.231Z,90.30
2019-01-24T13:09:25.719Z,90.40
2019-01-24T13:11:56.062Z,90.20
2019-01-24T13:14:26.889Z,90.40
2019-01-24T13:16:58.501Z,90.40
2019-01-24T13:19:29.006Z,90.50
2019-01-24T13:21:59.371Z,90.20
2019-01-24T13:24:29.753Z,90.10
2019-01-24T13:27:00.138Z,90.10
2019-01-24T13:29:30.535Z,90.00
2019-01-24T13:32:00.906Z,89.40
2019-01-24T13:34:31.335Z,89.90
2019-01-24T13:37:01.690Z,90.20
2019-01-24T13:39:32.493Z,89.80
2019-01-24T13:42:02.861Z,89.80
2019-01-24T13:44:33.339Z,89.90
2019-01-24T13:47:03.690Z,89.90
2019-01-24T13:49:34.076Z,89.80
2019-01-24T13:52:04.520Z,89.60
2019-01-24T13:54:34.955Z,89.90
2019-01-24T13:57:05.519Z,89.90
2019-01-24T13:59:35.945Z,90.00
2019-01-24T14:02:06.410Z,89.80
2019-01-24T14:04:43.894Z,89.80
2019-01-24T14:07:14.270Z,89.70
2019-01-24T14:09:44.672Z,89.40
2019-01-24T14:12:15.518Z,89.90
2019-01-24T14:14:46.263Z,89.40
2019-01-24T14:17:28.364Z,88.90
2019-01-24T14:19:58.798Z,89.30
2019-01-24T14:22:29.282Z,89.30
2019-01-24T14:24:59.637Z,89.50
2019-01-24T14:27:30.279Z,89.40
2019-01-24T14:30:00.649Z,89.80
2019-01-24T14:32:31.142Z,90.00
2019-01-24T14:35:02.780Z,90.00
2019-01-24T14:37:39.642Z,90.40
2019-01-24T14:40:06.417Z,90.30
2019-01-24T14:42:36.886Z,90.60
2019-01-24T14:45:09.851Z,90.50
2019-01-24T14:47:40.664Z,90.30
2019-01-24T14:50:14.189Z,90.30
2019-01-24T14:52:44.843Z,90.50
2019-01-24T14:55:15.207Z,90.50
2019-01-24T14:57:45.698Z,90.10
2019-01-24T15:00:20.419Z,90.30
2019-01-24T15:02:50.823Z,90.20
2019-01-24T15:05:21.182Z,90.20
2019-01-24T15:07:51.902Z,90.80
2019-01-24T15:10:22.821Z,90.10
2019-01-24T15:12:53.328Z,90.30
2019-01-24T15:15:23.923Z,90.20
2019-01-24T15:17:54.663Z,90.20
2019-01-24T15:20:25.046Z,90.20
2019-01-24T15:22:55.410Z,90.40
2019-01-24T15:25:25.850Z,90.60
2019-01-24T15:27:56.210Z,90.60
2019-01-24T15:30:26.711Z,90.70
2019-01-24T15:32:57.279Z,91.10
2019-01-24T15:35:27.709Z,90.90
2019-01-24T15:37:58.057Z,91.40
2019-01-24T15:40:47.478Z,91.10
2019-01-24T15:43:20.425Z,91.10
2019-01-24T15:45:54.444Z,91.00
2019-01-24T15:48:25.158Z,91.30
2019-01-24T15:50:55.559Z,91.40
2019-01-24T15:53:25.963Z,91.20
2019-01-24T15:55:56.511Z,91.30
2019-01-24T15:58:26.868Z,91.50
2019-01-24T16:00:57.283Z,91.60
2019-01-24T16:03:27.658Z,91.60
2019-01-24T16:05:58.142Z,91.60
2019-01-24T16:08:28.491Z,91.70
2019-01-24T16:10:58.904Z,91.30
2019-01-24T16:13:29.258Z,91.70
2019-01-24T16:15:59.638Z,91.70
2019-01-24T16:18:30.015Z,91.70
2019-01-24T16:21:00.386Z,91.70
2019-01-24T16:23:30.767Z,91.80
2019-01-24T16:26:01.114Z,91.60
2019-01-24T16:28:31.496Z,91.50
2019-01-24T16:31:01.854Z,91.80
2019-01-24T16:33:32.237Z,92.00
2019-01-24T16:36:02.595Z,91.50
2019-01-24T16:38:33.378Z,91.80
2019-01-24T16:41:03.802Z,91.50
2019-01-24T16:43:34.206Z,91.40
2019-01-24T16:46:04.859Z,91.40
2019-01-24T16:48:35.290Z,91.40
2019-01-24T16:51:05.961Z,91.40
2019-01-24T16:53:36.999Z,91.40
2019-01-24T16:56:07.369Z,91.30
2019-01-24T16:58:37.894Z,91.30
2019-01-24T17:01:13.185Z,91.20
2019-01-24T17:03:44.006Z,91.20
2019-01-24T17:06:14.370Z,91.30
2019-01-24T17:08:45.010Z,91.20
2019-01-24T17:11:15.367Z,91.20
2019-01-24T17:13:46.150Z,91.10
2019-01-24T17:16:16.502Z,91.10
2019-01-24T17:18:46.850Z,91.00
2019-01-24T17:21:17.222Z,91.20
2019-01-24T17:23:47.584Z,91.10
2019-01-24T17:26:17.954Z,91.10
2019-01-24T17:28:48.296Z,91.20
2019-01-24T17:31:18.686Z,91.00
2019-01-24T17:33:49.046Z,91.10
2019-01-24T17:36:19.462Z,91.00
2019-01-24T17:38:49.927Z,91.20
2019-01-24T17:41:20.333Z,91.10
2019-01-24T17:43:50.683Z,91.20
2019-01-24T17:46:22.162Z,91.20
2019-01-24T17:48:52.838Z,91.40
2019-01-24T17:51:23.254Z,91.30
2019-01-24T17:53:53.714Z,91.10
2019-01-24T17:56:24.123Z,91.10
2019-01-24T17:58:54.494Z,91.10
2019-01-24T18:01:25.315Z,91.20
2019-01-24T18:03:55.684Z,91.40
2019-01-24T18:06:26.237Z,91.70
2019-01-24T18:08:56.626Z,92.00
2019-01-24T18:11:27.097Z,92.00
2019-01-24T18:13:57.462Z,91.90
2019-01-24T18:16:27.851Z,92.00
2019-01-24T18:18:58.215Z,91.70
2019-01-24T18:21:28.590Z,91.70
2019-01-24T18:23:58.991Z,91.40
2019-01-24T18:26:29.338Z,91.60
2019-01-24T18:29:00.778Z,91.40
2019-01-24T18:31:31.138Z,91.50
2019-01-24T18:34:01.534Z,91.40
2019-01-24T18:36:31.898Z,91.80
2019-01-24T18:39:02.682Z,91.50
2019-01-24T18:41:33.606Z,91.20
2019-01-24T18:44:04.266Z,91.40
2019-01-24T18:46:34.620Z,91.40
2019-01-24T18:49:05.027Z,91.40
2019-01-24T18:51:35.382Z,91.60
2019-01-24T18:54:05.936Z,91.30
2019-01-24T18:56:36.299Z,91.30
2019-01-24T18:59:06.678Z,91.20
2019-01-24T19:01:37.414Z,91.30
2019-01-24T19:04:07.792Z,91.10
2019-01-24T19:06:38.161Z,91.20
2019-01-24T19:09:09.942Z,91.50
2019-01-24T19:11:40.338Z,91.10
2019-01-24T19:14:10.698Z,91.20
2019-01-24T19:16:41.178Z,91.50
2019-01-24T19:19:11.570Z,91.40
2019-01-24T19:21:43.112Z,91.60
2019-01-24T19:24:13.522Z,91.50
2019-01-24T19:26:43.902Z,91.70
2019-01-24T19:29:25.943Z,91.20
2019-01-24T19:31:56.426Z,91.20
2019-01-24T19:34:26.778Z,91.40
2019-01-24T19:36:57.191Z,91.70
2019-01-24T19:39:28.662Z,92.00
2019-01-24T19:41:59.726Z,91.60
2019-01-24T19:44:30.099Z,92.00
2019-01-24T19:47:00.547Z,91.70
2019-01-24T19:49:33.941Z,91.90
2019-01-24T19:52:04.707Z,91.30
2019-01-24T19:54:36.465Z,91.30
2019-01-24T19:57:06.935Z,91.30
2019-01-24T19:59:37.293Z,91.20
2019-01-24T20:02:07.659Z,91.10
2019-01-24T20:04:38.039Z,91.40
2019-01-24T20:07:08.434Z,91.40
2019-01-24T20:09:38.790Z,91.30
2019-01-24T20:12:20.791Z,91.10
2019-01-24T20:14:51.201Z,90.90
2019-01-24T20:17:21.626Z,90.80
2019-01-24T20:19:51.968Z,91.00
2019-01-24T20:22:22.355Z,91.30
2019-01-24T20:24:52.779Z,91.90
2019-01-24T20:27:23.178Z,92.20
2019-01-24T20:29:53.534Z,92.20
2019-01-24T20:32:23.934Z,92.40
2019-01-24T20:34:54.282Z,92.40
2019-01-24T20:37:24.726Z,92.50
2019-01-24T20:39:55.102Z,92.60
2019-01-24T20:42:25.459Z,92.40
2019-01-24T20:44:55.839Z,92.20
2019-01-24T20:47:26.796Z,92.20
2019-01-24T20:49:57.170Z,92.20
2019-01-24T20:52:27.522Z,92.20
2019-01-24T20:54:58.459Z,92.00
2019-01-24T20:57:29.884Z,92.10
2019-01-24T21:00:00.285Z,92.10
2019-01-24T21:02:30.652Z,92.10
2019-01-24T21:05:01.045Z,92.00
2019-01-24T21:07:32.066Z,92.00
2019-01-24T21:10:02.594Z,91.90
2019-01-24T21:12:32.943Z,91.70
2019-01-24T21:15:06.102Z,91.90
2019-01-24T21:17:36.466Z,91.80
2019-01-24T21:20:07.888Z,91.90
2019-01-24T21:22:38.254Z,92.10
2019-01-24T21:25:10.283Z,91.70
2019-01-24T21:27:40.682Z,92.00
2019-01-24T21:30:17.278Z,91.30
2019-01-24T21:32:48.130Z,91.40
2019-01-24T21:35:18.582Z,91.60
2019-01-24T21:37:49.107Z,91.10
2019-01-24T21:40:20.526Z,91.20
2019-01-24T21:42:50.927Z,91.20
2019-01-24T21:45:26.598Z,90.80
2019-01-24T21:47:57.102Z,91.30
2019-01-24T21:50:28.290Z,90.80
2019-01-24T21:52:58.685Z,90.90
2019-01-24T21:55:29.052Z,90.80
2019-01-24T21:57:59.530Z,90.50
2019-01-24T22:00:30.001Z,90.70
2019-01-24T22:03:00.387Z,90.70
2019-01-24T22:05:31.755Z,90.60
2019-01-24T22:08:02.128Z,90.80
2019-01-24T22:10:32.478Z,90.60
2019-01-24T22:13:03.253Z,91.00
2019-01-24T22:15:33.612Z,90.80
2019-01-24T22:18:04.610Z,90.70
2019-01-24T22:20:34.971Z,90.60
2019-01-24T22:23:06.542Z,90.70
2019-01-24T22:25:37.293Z,90.60
2019-01-24T22:28:08.382Z,90.60
2019-01-24T22:30:46.850Z,90.70
2019-01-24T22:33:17.950Z,91.00
2019-01-24T22:35:48.298Z,90.90
2019-01-24T22:38:18.724Z,90.90
2019-01-24T22:40:49.074Z,90.60
2019-01-24T22:43:19.498Z,90.90
2019-01-24T22:45:49.863Z,91.20
2019-01-24T22:48:20.583Z,90.90
2019-01-24T22:50:50.934Z,90.70
2019-01-24T22:53:21.334Z,90.70
2019-01-24T22:55:51.846Z,91.20
2019-01-24T22:58:22.321Z,90.80
2019-01-24T23:01:12.085Z,90.90
2019-01-24T23:03:46.890Z,90.90
2019-01-24T23:06:17.246Z,91.10
2019-01-24T23:08:47.622Z,90.80
2019-01-24T23:11:18.118Z,91.20
2019-01-24T23:13:48.469Z,91.00
2019-01-24T23:16:18.846Z,90.70
2019-01-24T23:18:49.202Z,90.90
2019-01-24T23:21:19.595Z,90.90
2019-01-24T23:23:49.938Z,91.00
2019-01-24T23:26:20.403Z,90.70
2019-01-24T23:28:50.764Z,90.70
2019-01-24T23:31:22.469Z,90.70
2019-01-24T23:33:52.827Z,90.80
2019-01-24T23:36:23.938Z,90.80
2019-01-24T23:38:54.294Z,90.70
2019-01-24T23:41:24.677Z,91.10
2019-01-24T23:43:55.028Z,90.90
2019-01-24T23:46:25.427Z,91.20
2019-01-24T23:48:55.791Z,91.20
2019-01-24T23:51:26.331Z,91.20
2019-01-24T23:53:56.715Z,91.00
2019-01-24T23:56:27.246Z,91.00
2019-01-24T23:58:57.598Z,91.20
